Time;durP1;ratioP1;P1;durP2;ratioP2;P2;SDS_P1;SDS_P2;PMS_P1;PMS_P2;Temp;Humidity;BMP_temperature;BMP_pressure;BME280_temperature;BME280_humidity;BME280_pressure;Samples;Min_cycle;Max_cycle;Signal;HPM_P1;HPM_P2
2023/10/02 00:03:32;;;;;;;18.73;9.07;;;11.90;1.00;;;;;;10453981;28;20304;-75
2023/10/02 00:08:53;;;;;;;16.50;9.67;;;11.90;1.00;;;;;;10475115;28;20409;-76
2023/10/02 00:14:18;;;;;;;20.73;10.70;;;12.00;1.00;;;;;;10478099;28;20201;-76
2023/10/02 00:19:45;;;;;;;23.02;11.68;;;12.00;1.00;;;;;;10477815;28;20205;-76
2023/10/02 00:25:22;;;;;;;21.43;11.20;;;12.10;1.00;;;;;;10445017;28;20211;-76
2023/10/02 00:30:43;;;;;;;22.23;11.07;;;12.20;1.00;;;;;;10477719;28;20203;-75
2023/10/02 00:36:05;;;;;;;17.40;11.20;;;12.30;1.00;;;;;;10477436;28;20237;-76
2023/10/02 00:41:27;;;;;;;18.55;9.93;;;12.40;1.00;;;;;;10476335;28;20268;-76
2023/10/02 00:46:48;;;;;;;17.33;8.03;;;12.50;94.80;;;;;;10477171;28;20201;-76
2023/10/02 00:52:09;;;;;;;11.23;6.63;;;12.50;1.00;;;;;;10464834;28;20229;-76
2023/10/02 00:57:35;;;;;;;9.23;5.55;;;12.50;1.00;;;;;;10437689;28;20207;-77
2023/10/02 01:02:58;;;;;;;8.70;5.78;;;12.50;99.90;;;;;;10428869;28;20559;-76
2023/10/02 01:08:23;;;;;;;11.90;5.65;;;12.60;99.90;;;;;;10448191;28;20242;-77
2023/10/02 01:13:44;;;;;;;12.45;4.63;;;12.60;99.90;;;;;;10475542;28;20308;-76
2023/10/02 01:19:06;;;;;;;8.93;4.82;;;12.50;1.00;;;;;;10484635;28;20217;-76
2023/10/02 01:24:28;;;;;;;7.83;3.90;;;12.50;99.90;;;;;;10466033;28;20567;-76
2023/10/02 01:30:14;;;;;;;10.00;4.67;;;12.50;1.00;;;;;;10483834;28;20493;-76
2023/10/02 01:35:31;;;;;;;7.85;4.35;;;12.50;1.00;;;;;;10441039;28;20274;-76
2023/10/02 01:41:06;;;;;;;7.35;4.03;;;12.60;1.00;;;;;;10452093;28;20223;-77
2023/10/02 01:46:29;;;;;;;6.13;3.75;;;12.50;63.50;;;;;;10480952;28;20277;-76
2023/10/02 01:51:58;;;;;;;8.17;4.50;;;12.60;99.90;;;;;;10468154;28;20199;-76
2023/10/02 01:57:24;;;;;;;9.60;5.47;;;12.60;99.90;;;;;;10467848;28;20195;-76
2023/10/02 02:03:14;;;;;;;10.30;5.67;;;12.70;16.20;;;;;;10469459;28;20238;-76
2023/10/02 02:08:27;;;;;;;9.60;5.20;;;12.80;99.90;;;;;;10440916;28;20227;-75
2023/10/02 02:13:51;;;;;;;9.23;4.77;;;12.80;1.00;;;;;;10451526;28;20521;-76
2023/10/02 02:19:14;;;;;;;6.03;3.90;;;12.90;1.00;;;;;;10450576;28;20207;-76
2023/10/02 02:24:38;;;;;;;6.70;3.58;;;12.90;1.00;;;;;;10466727;28;20226;-76
2023/10/02 02:30:00;;;;;;;7.35;3.90;;;13.00;1.00;;;;;;10465961;28;20197;-76
2023/10/02 02:35:21;;;;;;;7.40;3.75;;;13.00;1.00;;;;;;10481161;28;20195;-76
2023/10/02 02:40:42;;;;;;;5.32;3.83;;;13.10;99.90;;;;;;10466263;28;20227;-76
2023/10/02 02:46:08;;;;;;;6.90;3.70;;;13.10;1.00;;;;;;10438295;28;20283;-76
2023/10/02 02:51:29;;;;;;;8.30;4.45;;;13.10;1.00;;;;;;10439333;28;20227;-76
2023/10/02 02:56:56;;;;;;;7.95;4.90;;;13.10;1.00;;;;;;10439397;28;20215;-76
2023/10/02 03:02:22;;;;;;;6.95;4.60;;;13.10;1.00;;;;;;10438108;28;20243;-76
2023/10/02 03:07:44;;;;;;;10.68;5.80;;;13.10;99.90;;;;;;10464362;28;20223;-76
2023/10/02 03:13:15;;;;;;;8.07;4.10;;;13.00;1.00;;;;;;10479095;28;20202;-76
2023/10/02 03:18:37;;;;;;;9.68;4.30;;;13.10;1.00;;;;;;10437146;28;20196;-76
2023/10/02 03:23:59;;;;;;;5.90;3.33;;;13.00;99.90;;;;;;10450980;28;20231;-76
2023/10/02 03:29:21;;;;;;;4.65;3.55;;;13.10;1.00;;;;;;10476155;28;20200;-76
2023/10/02 03:34:48;;;;;;;5.95;3.63;;;13.20;1.00;;;;;;10478749;28;20550;-76
2023/10/02 03:40:14;;;;;;;7.95;3.83;;;13.30;99.90;;;;;;10478830;28;20501;-77
2023/10/02 03:45:38;;;;;;;5.90;3.83;;;13.20;99.90;;;;;;10454356;28;20361;-75
2023/10/02 03:51:04;;;;;;;8.23;4.07;;;13.20;99.90;;;;;;10437282;28;20215;-77
2023/10/02 03:56:36;;;;;;;5.15;3.40;;;13.10;99.90;;;;;;10437192;28;20408;-77
2023/10/02 04:07:41;;;;;;;7.60;4.40;;;13.30;1.00;;;;;;10475955;28;20239;-77
2023/10/02 04:13:02;;;;;;;9.43;3.80;;;13.20;83.50;;;;;;10477963;28;20200;-76
2023/10/02 04:24:09;;;;;;;6.97;4.15;;;13.30;1.00;;;;;;10477055;28;20485;-76
2023/10/02 04:29:37;;;;;;;10.82;5.10;;;13.30;93.20;;;;;;10477080;28;20197;-77
2023/10/02 04:34:58;;;;;;;5.07;4.00;;;13.20;1.00;;;;;;10489823;28;20196;-77
2023/10/02 04:40:23;;;;;;;6.93;4.47;;;13.20;1.00;;;;;;10476880;28;20199;-76
2023/10/02 04:46:08;;;;;;;8.93;4.88;;;13.20;1.00;;;;;;10471467;28;20198;-76
2023/10/02 04:51:29;;;;;;;9.32;4.50;;;13.20;1.00;;;;;;10435929;28;20515;-76
2023/10/02 04:57:08;;;;;;;9.85;4.18;;;13.30;1.00;;;;;;10435787;28;20246;-76
2023/10/02 05:02:30;;;;;;;8.68;3.92;;;13.30;99.90;;;;;;10458023;28;20467;-76
2023/10/02 05:07:52;;;;;;;6.65;3.65;;;13.30;99.90;;;;;;10458561;28;20235;-76
2023/10/02 05:13:14;;;;;;;8.23;4.10;;;13.40;1.00;;;;;;10476518;28;20199;-76
2023/10/02 05:18:35;;;;;;;6.20;3.83;;;13.40;99.90;;;;;;10475607;28;20279;-76
2023/10/02 05:24:00;;;;;;;8.88;4.30;;;13.40;99.90;;;;;;10476208;28;20222;-77
2023/10/02 05:29:36;;;;;;;6.15;4.82;;;13.40;99.90;;;;;;10457276;28;20283;-76
2023/10/02 05:34:59;;;;;;;5.57;3.75;;;13.50;26.90;;;;;;10458219;28;20243;-77
2023/10/02 05:45:50;;;;;;;9.15;4.45;;;13.50;99.90;;;;;;10469492;28;20272;-78
2023/10/02 05:51:12;;;;;;;6.85;3.90;;;13.60;1.00;;;;;;10441890;28;20190;-78
2023/10/02 05:56:34;;;;;;;6.97;4.57;;;13.60;1.00;;;;;;10440642;28;20194;-77
2023/10/02 06:01:55;;;;;;;8.15;4.63;;;13.80;99.90;;;;;;10468306;28;20227;-78
2023/10/02 06:13:03;;;;;;;8.60;5.00;;;14.00;1.00;;;;;;10481755;28;20408;-78
2023/10/02 06:18:25;;;;;;;10.55;5.03;;;14.10;99.90;;;;;;10486705;28;20255;-78
2023/10/02 06:23:47;;;;;;;7.20;4.22;;;14.20;99.90;;;;;;10516988;28;20218;-77
2023/10/02 06:29:16;;;;;;;6.85;4.72;;;14.30;99.90;;;;;;10480836;28;20258;-77
2023/10/02 06:34:39;;;;;;;5.28;4.30;;;14.40;99.90;;;;;;10466477;28;20268;-78
2023/10/02 06:40:14;;;;;;;11.82;5.25;;;14.60;1.00;;;;;;10462377;28;20280;-77
2023/10/02 06:45:36;;;;;;;7.07;4.88;;;14.70;72.90;;;;;;10468523;28;20306;-78
2023/10/02 06:50:58;;;;;;;10.25;5.93;;;14.90;99.90;;;;;;10472547;28;20483;-75
2023/10/02 06:56:20;;;;;;;10.40;5.63;;;15.00;34.80;;;;;;10521827;28;20412;-79
2023/10/02 07:02:04;;;;;;;12.20;5.80;;;15.30;99.90;;;;;;10495099;28;20228;-78
2023/10/02 07:07:31;;;;;;;14.90;8.73;;;15.80;1.00;;;;;;10479028;28;20322;-79
2023/10/02 07:12:54;;;;;;;14.43;7.32;;;15.80;99.90;;;;;;10477789;28;20236;-77
2023/10/02 07:18:16;;;;;;;17.17;7.28;;;15.90;99.90;;;;;;10478748;28;20241;-77
2023/10/02 07:23:37;;;;;;;12.35;7.00;;;15.90;99.90;;;;;;10478937;28;20272;-76
2023/10/02 07:29:00;;;;;;;11.52;6.25;;;16.10;1.00;;;;;;10460918;28;20241;-77
2023/10/02 07:34:26;;;;;;;12.00;6.85;;;16.20;1.00;;;;;;10450121;28;20218;-81
2023/10/02 07:39:58;;;;;;;13.50;6.65;;;16.20;99.90;;;;;;10445423;28;20250;-81
2023/10/02 07:45:25;;;;;;;14.77;7.93;;;16.20;1.00;;;;;;10458383;28;20368;-76
2023/10/02 07:50:47;;;;;;;17.65;8.48;;;16.20;1.00;;;;;;10445499;28;20728;-80
2023/10/02 07:56:12;;;;;;;18.55;8.18;;;16.40;1.00;;;;;;10470177;28;20481;-76
2023/10/02 08:01:33;;;;;;;14.40;7.15;;;16.50;1.00;;;;;;10513401;28;20218;-77
2023/10/02 08:07:00;;;;;;;13.32;7.32;;;16.70;1.00;;;;;;10464521;28;20246;-77
2023/10/02 08:12:33;;;;;;;15.50;7.00;;;16.70;99.90;;;;;;10472537;28;20223;-77
2023/10/02 08:23:24;;;;;;;9.52;5.65;;;16.50;1.00;;;;;;10455941;28;20238;-79
2023/10/02 08:28:46;;;;;;;13.85;6.20;;;16.50;1.00;;;;;;10468705;28;20257;-76
2023/10/02 08:34:09;;;;;;;11.23;6.57;;;16.50;1.00;;;;;;10454380;28;20215;-79
2023/10/02 08:39:36;;;;;;;13.32;6.55;;;16.50;99.90;;;;;;10471334;28;20293;-76
2023/10/02 08:45:00;;;;;;;11.15;6.45;;;16.50;1.00;;;;;;10472000;28;20279;-77
2023/10/02 08:50:22;;;;;;;11.30;7.28;;;16.40;46.00;;;;;;10440834;28;20348;-77
2023/10/02 08:55:54;;;;;;;14.00;7.22;;;16.30;99.90;;;;;;10465980;28;20219;-78
2023/10/02 09:01:20;;;;;;;15.25;6.47;;;16.30;1.00;;;;;;10456695;28;20278;-80
2023/10/02 09:06:43;;;;;;;10.75;5.88;;;16.30;1.00;;;;;;10471642;28;20465;-76
2023/10/02 09:12:14;;;;;;;13.82;7.47;;;16.30;99.90;;;;;;10474679;28;20228;-76
2023/10/02 09:17:44;;;;;;;12.20;7.28;;;16.40;99.90;;;;;;10479218;28;20209;-77
2023/10/02 09:23:09;;;;;;;18.05;8.40;;;16.50;99.90;;;;;;10478144;28;20279;-76
2023/10/02 09:28:41;;;;;;;20.30;9.90;;;16.60;99.90;;;;;;10478996;28;20228;-84
2023/10/02 09:34:16;;;;;;;12.95;7.55;;;16.70;1.00;;;;;;10478110;28;20251;-77
2023/10/02 09:39:38;;;;;;;16.35;9.07;;;16.80;99.90;;;;;;10478073;28;20269;-77
2023/10/02 09:45:08;;;;;;;16.27;9.27;;;17.10;99.90;;;;;;10482371;28;20403;-78
2023/10/02 09:50:34;;;;;;;21.40;9.75;;;17.30;99.90;;;;;;10462293;28;20207;-90
2023/10/02 09:56:00;;;;;;;21.83;9.13;;;17.70;99.90;;;;;;10460883;28;20194;-80
2023/10/02 10:07:06;;;;;;;17.73;9.25;;;17.80;1.00;;;;;;10474269;28;20247;-76
2023/10/02 10:12:54;;;;;;;16.52;7.53;;;18.30;14.20;;;;;;10445463;28;20513;-79
2023/10/02 10:18:17;;;;;;;17.70;7.63;;;19.10;1.00;;;;;;10453952;28;20287;-80
2023/10/02 10:23:39;;;;;;;16.58;7.40;;;19.30;1.00;;;;;;10443670;28;20349;-79
2023/10/02 10:29:37;;;;;;;14.30;6.90;;;19.30;99.90;;;;;;10460713;28;20494;-76
2023/10/02 10:35:12;;;;;;;13.88;7.13;;;19.30;99.90;;;;;;10495475;28;20195;-79
2023/10/02 10:40:59;;;;;;;12.98;6.43;;;19.50;99.90;;;;;;10515198;28;20401;-79
2023/10/02 10:46:24;;;;;;;21.30;11.25;;;19.30;99.90;;;;;;10479315;28;20575;-80
2023/10/02 10:51:52;;;;;;;12.65;6.80;;;18.90;99.90;;;;;;10448073;28;20199;-85
2023/10/02 10:57:19;;;;;;;13.43;6.25;;;18.60;1.00;;;;;;10472814;28;20195;-82
2023/10/02 11:02:40;;;;;;;13.65;6.07;;;18.40;1.00;;;;;;10457276;28;20239;-80
2023/10/02 11:08:25;;;;;;;11.52;6.43;;;18.30;1.00;;;;;;10459575;28;23030;-87
2023/10/02 11:13:54;;;;;;;14.82;6.68;;;18.10;1.00;;;;;;10489309;28;20208;-81
2023/10/02 11:24:55;;;;;;;17.83;8.57;;;17.80;76.20;;;;;;10474142;28;20298;-82
2023/10/02 11:30:30;;;;;;;10.25;6.30;;;17.80;28.40;;;;;;10441535;28;20430;-80
2023/10/02 11:35:56;;;;;;;9.77;6.05;;;17.70;30.50;;;;;;10485145;28;20203;-85
2023/10/02 11:41:17;;;;;;;17.15;8.40;;;17.70;1.00;;;;;;10501117;28;20248;-78
2023/10/02 11:46:48;;;;;;;19.10;8.77;;;17.80;1.00;;;;;;10497405;28;20240;-78
2023/10/02 11:52:09;;;;;;;21.00;12.40;;;17.80;1.00;;;;;;10450195;28;20203;-78
2023/10/02 11:57:33;;;;;;;12.70;6.57;;;17.90;99.90;;;;;;10504808;28;20200;-90
2023/10/02 12:02:56;;;;;;;13.82;6.10;;;18.00;1.00;;;;;;10487727;28;20280;-84
2023/10/02 12:08:20;;;;;;;16.17;8.55;;;18.20;43.60;;;;;;10495210;28;20236;-85
2023/10/02 12:13:45;;;;;;;10.05;6.35;;;18.30;1.00;;;;;;10455272;28;20209;-77
2023/10/02 12:19:08;;;;;;;16.15;8.57;;;18.40;1.00;;;;;;10479644;28;20207;-79
2023/10/02 12:24:30;;;;;;;12.15;5.97;;;18.40;1.00;;;;;;10499582;28;20226;-82
2023/10/02 12:29:51;;;;;;;17.73;8.48;;;18.30;1.00;;;;;;10504647;28;20210;-77
2023/10/02 12:35:16;;;;;;;15.23;7.00;;;18.20;1.00;;;;;;10472091;28;20195;-85
2023/10/02 12:40:37;;;;;;;8.95;6.00;;;18.20;1.00;;;;;;10454563;28;20207;-81
2023/10/02 12:46:01;;;;;;;14.20;7.25;;;18.30;1.00;;;;;;10461151;28;20237;-81
2023/10/02 12:51:23;;;;;;;12.20;6.32;;;18.30;99.90;;;;;;10484765;28;20229;-81
2023/10/02 12:56:46;;;;;;;13.65;5.88;;;18.40;99.90;;;;;;10489677;28;20197;-78
2023/10/02 13:02:07;;;;;;;17.48;8.00;;;18.40;99.90;;;;;;10477010;28;20552;-81
2023/10/02 13:07:29;;;;;;;14.57;8.75;;;18.40;99.90;;;;;;10479478;28;20552;-78
2023/10/02 13:12:51;;;;;;;14.45;6.78;;;18.40;99.90;;;;;;10453263;28;20262;-89
2023/10/02 13:18:12;;;;;;;17.55;9.48;;;18.50;99.90;;;;;;10476955;28;20199;-85
2023/10/02 13:23:37;;;;;;;32.67;18.75;;;18.60;99.90;;;;;;10464030;28;20395;-84
2023/10/02 13:28:59;;;;;;;17.23;9.20;;;18.70;60.30;;;;;;10478392;28;20196;-88
2023/10/02 13:34:21;;;;;;;26.98;12.15;;;18.80;13.40;;;;;;10466874;28;20253;-80
2023/10/02 13:39:42;;;;;;;13.50;7.65;;;19.00;1.00;;;;;;10475910;28;20225;-79
2023/10/02 13:45:03;;;;;;;16.92;7.82;;;19.10;1.00;;;;;;10459427;28;20268;-83
2023/10/02 13:50:25;;;;;;;16.75;7.78;;;19.20;1.00;;;;;;10459007;28;20211;-83
2023/10/02 13:55:46;;;;;;;11.98;6.45;;;19.30;1.00;;;;;;10476295;28;20218;-79
2023/10/02 14:01:09;;;;;;;13.05;6.22;;;19.30;1.00;;;;;;10476757;28;20187;-83
2023/10/02 14:06:30;;;;;;;9.40;5.57;;;19.50;1.00;;;;;;10459180;28;20244;-82
2023/10/02 14:11:52;;;;;;;16.70;6.45;;;19.70;1.00;;;;;;10469992;28;20204;-79
2023/10/02 14:17:14;;;;;;;14.65;6.65;;;19.60;1.00;;;;;;10473869;28;20200;-79
2023/10/02 14:22:37;;;;;;;16.38;7.20;;;19.60;1.00;;;;;;10447787;28;20407;-79
2023/10/02 14:27:59;;;;;;;14.70;8.23;;;19.50;1.00;;;;;;10447626;28;20902;-80
2023/10/02 14:33:23;;;;;;;10.85;6.85;;;19.50;1.00;;;;;;10458352;28;20303;-79
2023/10/02 14:38:44;;;;;;;9.65;5.93;;;19.40;1.00;;;;;;10446229;28;20200;-79
2023/10/02 14:44:06;;;;;;;11.95;6.22;;;19.30;1.00;;;;;;10475970;28;20219;-80
2023/10/02 14:49:27;;;;;;;14.75;6.95;;;19.30;1.00;;;;;;10473586;28;20199;-80
2023/10/02 14:54:48;;;;;;;16.27;6.63;;;19.20;1.00;;;;;;10475898;28;20520;-80
2023/10/02 15:00:10;;;;;;;12.60;6.47;;;19.10;1.00;;;;;;10457590;28;20195;-79
2023/10/02 15:05:31;;;;;;;13.60;6.07;;;19.20;1.00;;;;;;10474038;28;20223;-79
2023/10/02 15:10:53;;;;;;;13.38;6.70;;;19.00;99.90;;;;;;10477236;28;20232;-81
2023/10/02 15:16:14;;;;;;;13.18;6.68;;;19.00;99.90;;;;;;10446783;28;20526;-80
2023/10/02 15:21:36;;;;;;;11.30;6.45;;;18.90;99.90;;;;;;10476669;28;20203;-81
2023/10/02 15:26:58;;;;;;;8.20;5.13;;;18.90;99.90;;;;;;10459356;28;20227;-80
2023/10/02 15:32:20;;;;;;;14.85;7.35;;;18.80;99.90;;;;;;10458449;28;20199;-81
2023/10/02 15:37:43;;;;;;;8.02;5.53;;;18.80;1.00;;;;;;10443224;28;20203;-81
2023/10/02 15:43:04;;;;;;;10.05;6.65;;;18.70;1.00;;;;;;10427989;28;20215;-81
2023/10/02 15:48:26;;;;;;;13.82;7.30;;;18.60;1.00;;;;;;10478519;28;20183;-81
2023/10/02 15:53:47;;;;;;;12.07;7.93;;;18.60;1.00;;;;;;10476265;28;20191;-80
2023/10/02 15:59:08;;;;;;;19.85;11.85;;;18.50;1.00;;;;;;10458984;28;20191;-81
2023/10/02 16:04:29;;;;;;;16.25;10.50;;;18.50;91.00;;;;;;10475232;28;20239;-81
2023/10/02 16:09:51;;;;;;;17.70;12.38;;;18.50;99.90;;;;;;10477717;28;20231;-81
2023/10/02 16:15:14;;;;;;;29.80;20.23;;;18.40;99.90;;;;;;10474722;28;20553;-80
2023/10/02 16:20:38;;;;;;;19.88;15.80;;;18.40;99.90;;;;;;10474115;28;20310;-81
2023/10/02 16:25:59;;;;;;;16.75;10.65;;;18.40;1.00;;;;;;10444839;28;20269;-81
2023/10/02 16:31:24;;;;;;;14.30;8.95;;;18.30;1.00;;;;;;10477848;28;20196;-81
2023/10/02 16:36:47;;;;;;;19.08;8.10;;;18.30;1.00;;;;;;10432476;28;20211;-80
2023/10/02 16:42:09;;;;;;;16.52;7.70;;;18.30;1.00;;;;;;10436165;28;20192;-81
2023/10/02 16:47:31;;;;;;;23.42;12.15;;;18.30;1.00;;;;;;10473777;28;20199;-81
2023/10/02 16:52:52;;;;;;;20.60;10.57;;;18.30;1.00;;;;;;10471033;28;20246;-81
2023/10/02 16:58:14;;;;;;;13.70;8.80;;;18.20;1.00;;;;;;10476166;28;20252;-81
2023/10/02 17:03:36;;;;;;;13.23;8.13;;;18.20;1.00;;;;;;10475275;28;20220;-80
2023/10/02 17:08:57;;;;;;;13.15;7.55;;;18.20;1.00;;;;;;10452052;28;20322;-82
2023/10/02 17:14:19;;;;;;;16.35;7.80;;;18.20;1.00;;;;;;10476948;28;20218;-81
2023/10/02 17:19:40;;;;;;;13.75;8.05;;;18.20;1.00;;;;;;10461724;28;20278;-82
2023/10/02 17:25:01;;;;;;;15.38;8.60;;;18.10;1.00;;;;;;10473372;28;20220;-80
2023/10/02 17:30:24;;;;;;;16.05;8.95;;;18.10;1.00;;;;;;10476187;28;20195;-81
2023/10/02 17:35:45;;;;;;;14.32;7.72;;;18.20;1.00;;;;;;10483409;28;20521;-81
2023/10/02 17:41:07;;;;;;;14.57;8.65;;;18.10;1.00;;;;;;10469083;28;20192;-81
2023/10/02 17:46:31;;;;;;;15.00;7.78;;;18.10;1.00;;;;;;10464819;28;20255;-82
2023/10/02 17:51:52;;;;;;;17.52;9.02;;;18.10;1.00;;;;;;10480895;28;20196;-80
2023/10/02 17:57:17;;;;;;;20.88;8.50;;;18.10;1.00;;;;;;10478975;28;20418;-81
2023/10/02 18:02:41;;;;;;;18.17;8.70;;;18.10;1.00;;;;;;10478663;28;20227;-81
2023/10/02 18:08:05;;;;;;;22.08;9.00;;;18.10;1.00;;;;;;10482140;28;20258;-81
2023/10/02 18:13:26;;;;;;;20.98;9.90;;;18.00;1.00;;;;;;10482056;28;20586;-81
2023/10/02 18:18:47;;;;;;;16.98;8.63;;;18.00;1.00;;;;;;10453444;28;20191;-82
2023/10/02 18:24:11;;;;;;;15.63;8.27;;;18.00;1.00;;;;;;10464423;28;20305;-81
2023/10/02 18:29:33;;;;;;;13.40;7.65;;;17.90;1.00;;;;;;10448606;28;20282;-81
2023/10/02 18:34:56;;;;;;;16.27;9.15;;;17.90;1.00;;;;;;10466817;28;20456;-81
2023/10/02 18:40:17;;;;;;;11.98;7.18;;;17.90;1.00;;;;;;10463760;28;20202;-81
2023/10/02 18:45:39;;;;;;;12.10;7.38;;;17.90;1.00;;;;;;10477826;28;20234;-81
2023/10/02 18:51:00;;;;;;;14.48;7.57;;;17.90;1.00;;;;;;10494454;28;20421;-80
2023/10/02 18:56:25;;;;;;;12.52;7.55;;;17.90;1.00;;;;;;10478878;28;20208;-82
2023/10/02 19:01:47;;;;;;;18.08;7.40;;;17.90;1.00;;;;;;10480831;28;20188;-81
2023/10/02 19:07:09;;;;;;;12.02;7.43;;;17.80;1.00;;;;;;10462582;28;20247;-81
2023/10/02 19:12:30;;;;;;;16.33;7.38;;;17.80;1.00;;;;;;10458683;28;20203;-80
2023/10/02 19:17:51;;;;;;;12.27;7.65;;;17.80;1.00;;;;;;10448440;28;20219;-81
2023/10/02 19:23:13;;;;;;;11.38;7.47;;;17.80;1.00;;;;;;10441107;28;20255;-81
2023/10/02 19:28:35;;;;;;;12.02;6.95;;;17.80;1.00;;;;;;10437090;28;20200;-82
2023/10/02 19:33:56;;;;;;;11.05;7.13;;;17.70;95.40;;;;;;10451785;28;20188;-82
2023/10/02 19:39:20;;;;;;;12.93;8.00;;;17.80;26.00;;;;;;10466769;28;20200;-81
2023/10/02 19:44:42;;;;;;;13.77;8.00;;;17.70;9.00;;;;;;10478775;28;20430;-81
2023/10/02 19:50:03;;;;;;;17.63;7.95;;;17.70;35.90;;;;;;10462918;28;20210;-80
2023/10/02 19:55:25;;;;;;;11.85;6.72;;;17.70;1.00;;;;;;10491536;28;20317;-81
2023/10/02 20:00:51;;;;;;;12.98;6.85;;;17.80;1.00;;;;;;10475970;28;20209;-81
2023/10/02 20:06:16;;;;;;;15.75;8.00;;;17.70;27.80;;;;;;10475762;28;20271;-80
2023/10/02 20:11:37;;;;;;;12.13;6.60;;;17.70;60.00;;;;;;10472044;28;20191;-82
2023/10/02 20:17:01;;;;;;;17.05;7.43;;;17.70;98.20;;;;;;10476480;28;20190;-81
2023/10/02 20:22:22;;;;;;;11.80;6.75;;;17.70;99.90;;;;;;10468445;28;20234;-81
2023/10/02 20:27:44;;;;;;;11.50;6.45;;;17.70;99.90;;;;;;10458282;28;20207;-82
2023/10/02 20:33:09;;;;;;;14.45;6.82;;;17.70;99.90;;;;;;10478118;28;20249;-82
2023/10/02 20:38:31;;;;;;;12.52;7.75;;;17.70;99.90;;;;;;10477901;28;20258;-82
2023/10/02 20:43:52;;;;;;;12.40;7.03;;;17.70;99.90;;;;;;10474113;28;20548;-80
2023/10/02 20:49:13;;;;;;;12.95;7.43;;;17.70;99.90;;;;;;10473979;28;20198;-81
2023/10/02 20:54:35;;;;;;;16.88;8.10;;;17.60;99.90;;;;;;10462502;28;20191;-81
2023/10/02 20:59:57;;;;;;;11.30;6.75;;;17.70;99.90;;;;;;10477475;28;20521;-82
2023/10/02 21:05:18;;;;;;;12.68;7.13;;;17.70;99.90;;;;;;10456813;28;20226;-82
2023/10/02 21:10:39;;;;;;;13.27;6.97;;;17.70;99.90;;;;;;10482345;28;20526;-81
2023/10/02 21:16:01;;;;;;;15.32;7.25;;;17.60;99.90;;;;;;10484193;28;20199;-81
2023/10/02 21:21:23;;;;;;;11.30;6.53;;;17.60;1.00;;;;;;10483891;28;20211;-79
2023/10/02 21:26:44;;;;;;;13.07;7.35;;;17.60;1.00;;;;;;10477978;28;20449;-79
2023/10/02 21:32:07;;;;;;;13.48;7.10;;;17.50;1.00;;;;;;10428285;28;20204;-78
2023/10/02 21:37:28;;;;;;;13.50;8.35;;;17.50;1.00;;;;;;10458645;28;20200;-81
2023/10/02 21:42:49;;;;;;;10.57;6.50;;;17.40;56.30;;;;;;10476825;28;20210;-81
2023/10/02 21:48:11;;;;;;;11.93;7.00;;;17.40;99.90;;;;;;10482870;28;20211;-81
2023/10/02 21:53:34;;;;;;;12.68;7.32;;;17.40;99.90;;;;;;10480733;28;20194;-80
2023/10/02 21:58:55;;;;;;;17.67;8.82;;;17.40;1.00;;;;;;10482789;28;20202;-81
2023/10/02 22:04:17;;;;;;;12.48;6.50;;;17.40;1.00;;;;;;10482378;28;20230;-81
2023/10/02 22:09:39;;;;;;;14.85;7.80;;;17.40;1.00;;;;;;10480508;28;20229;-80
2023/10/02 22:15:01;;;;;;;12.00;7.00;;;17.40;1.00;;;;;;10451233;28;20278;-79
2023/10/02 22:20:22;;;;;;;13.07;7.82;;;17.30;1.00;;;;;;10481060;28;20203;-81
2023/10/02 22:25:45;;;;;;;15.18;7.75;;;17.30;1.00;;;;;;10497782;28;20219;-80
2023/10/02 22:31:06;;;;;;;14.50;7.38;;;17.20;99.90;;;;;;10463756;28;20223;-81
2023/10/02 22:36:28;;;;;;;16.65;7.82;;;17.20;99.90;;;;;;10473926;28;20222;-80
2023/10/02 22:41:50;;;;;;;13.75;6.78;;;17.10;1.00;;;;;;10479488;28;20266;-80
2023/10/02 22:47:11;;;;;;;17.50;8.32;;;17.10;1.00;;;;;;10481247;28;20539;-80
2023/10/02 22:52:32;;;;;;;14.10;7.53;;;17.00;99.90;;;;;;10480003;28;20513;-81
2023/10/02 22:57:55;;;;;;;13.18;7.68;;;17.00;1.00;;;;;;10479144;28;20260;-80
2023/10/02 23:03:16;;;;;;;13.02;7.38;;;17.00;1.00;;;;;;10463228;28;20226;-79
2023/10/02 23:08:37;;;;;;;13.02;6.97;;;17.00;1.00;;;;;;10465289;28;20232;-81
2023/10/02 23:13:59;;;;;;;9.60;6.30;;;17.00;1.00;;;;;;10461567;28;20564;-80
2023/10/02 23:19:24;;;;;;;13.70;7.63;;;17.10;1.00;;;;;;10480299;28;20197;-81
2023/10/02 23:24:46;;;;;;;13.65;8.07;;;17.00;51.50;;;;;;10479888;28;20219;-80
2023/10/02 23:30:08;;;;;;;17.15;7.93;;;17.00;1.00;;;;;;10448146;28;20197;-80
2023/10/02 23:35:29;;;;;;;12.32;7.75;;;17.00;1.00;;;;;;10463680;28;20191;-80
2023/10/02 23:40:51;;;;;;;14.95;7.10;;;17.00;1.00;;;;;;10478835;28;20237;-80
2023/10/02 23:46:12;;;;;;;15.05;8.60;;;17.10;1.00;;;;;;10469098;28;20296;-80
2023/10/02 23:51:35;;;;;;;15.50;8.85;;;17.10;1.00;;;;;;10492121;28;20199;-81
2023/10/02 23:56:57;;;;;;;14.35;7.57;;;17.00;1.00;;;;;;10476967;28;20253;-81
